createdAt,value
2018-07-04T00:00:28.814Z,60.90
2018-07-04T00:01:29.474Z,61.19
2018-07-04T00:02:29.963Z,61.09
2018-07-04T00:03:29.198Z,60.80
2018-07-04T00:04:31.964Z,60.90
2018-07-04T00:05:29.964Z,61.76
2018-07-04T00:06:53.471Z,62.04
2018-07-04T00:07:30.466Z,61.66
2018-07-04T00:08:30.463Z,61.85
2018-07-04T00:09:30.464Z,61.57
2018-07-04T00:10:30.973Z,61.66
2018-07-04T00:11:30.963Z,61.76
2018-07-04T00:12:30.963Z,62.14
2018-07-04T00:13:30.964Z,62.04
2018-07-04T00:17:33.719Z,61.92
2018-07-04T00:18:55.475Z,62.30
2018-07-04T00:19:36.993Z,63.35
2018-07-04T00:22:27.311Z,62.40
2018-07-04T00:23:06.262Z,63.07
2018-07-04T00:24:08.261Z,63.07
2018-07-04T00:25:06.762Z,63.54
2018-07-04T00:26:07.715Z,63.45
2018-07-04T00:27:27.762Z,64.02
2018-07-04T00:28:06.766Z,64.78
2018-07-04T00:29:06.763Z,64.59
2018-07-04T00:30:28.261Z,64.22
2018-07-04T00:31:08.715Z,64.40
2018-07-04T00:32:07.269Z,64.12
2018-07-04T00:33:06.616Z,63.83
2018-07-04T00:34:07.262Z,63.93
2018-07-04T00:38:11.270Z,64.40
2018-07-04T00:39:11.278Z,64.56
2018-07-04T00:40:11.278Z,64.47
2018-07-04T00:41:11.785Z,65.04
2018-07-04T00:42:11.050Z,64.65
2018-07-04T00:43:11.777Z,64.85
2018-07-04T00:44:11.777Z,64.56
2018-07-04T00:48:15.446Z,65.64
2018-07-04T00:49:39.387Z,65.14
2018-07-04T00:50:15.453Z,65.42
2018-07-04T00:51:17.954Z,65.90
2018-07-04T00:52:15.952Z,65.90
2018-07-04T00:53:36.951Z,65.71
2018-07-04T00:54:15.952Z,65.23
2018-07-04T00:57:11.198Z,65.84
2018-07-04T00:58:11.206Z,65.84
2018-07-04T00:59:10.204Z,65.71
2018-07-04T01:00:08.543Z,65.23
2018-07-04T01:00:48.209Z,64.85
2018-07-04T01:01:49.205Z,65.23
2018-07-04T01:02:48.706Z,65.71
2018-07-04T01:03:48.701Z,65.71
2018-07-04T01:04:48.703Z,65.52
2018-07-04T01:05:48.712Z,66.09
2018-07-04T01:06:49.207Z,65.90
2018-07-04T01:07:49.175Z,66.47
2018-07-04T01:08:49.206Z,66.47
2018-07-04T01:09:50.204Z,66.28
2018-07-04T01:10:49.706Z,66.19
2018-07-04T01:11:49.704Z,65.80
2018-07-04T01:12:49.705Z,65.52
2018-07-04T01:13:49.706Z,65.80
2018-07-04T01:14:50.210Z,65.52
2018-07-04T01:15:50.210Z,66.47
2018-07-04T01:16:50.207Z,66.19
2018-07-04T01:17:50.206Z,66.76
2018-07-04T01:18:50.715Z,66.85
2018-07-04T01:19:51.703Z,66.76
2018-07-04T01:20:50.707Z,67.01
2018-07-04T01:21:50.706Z,66.76
2018-07-04T01:22:51.205Z,66.72
2018-07-04T01:24:12.206Z,66.76
2018-07-04T01:24:51.206Z,67.33
2018-07-04T01:26:12.201Z,67.43
2018-07-04T01:26:56.637Z,67.05
2018-07-04T01:27:52.702Z,66.85
2018-07-04T01:28:51.707Z,66.76
2018-07-04T01:29:51.714Z,67.05
2018-07-04T01:30:52.205Z,66.95
2018-07-04T01:32:19.210Z,67.43
2018-07-04T01:32:52.206Z,67.71
2018-07-04T01:33:52.206Z,67.91
2018-07-04T01:36:23.715Z,67.71
2018-07-04T01:37:24.461Z,66.92
2018-07-04T01:38:24.472Z,67.30
2018-07-04T01:39:24.960Z,67.01
2018-07-04T01:40:24.961Z,67.49
2018-07-04T01:41:46.957Z,67.58
2018-07-04T01:42:25.981Z,68.16
2018-07-04T01:43:28.458Z,67.49
2018-07-04T01:44:25.463Z,67.87
2018-07-04T01:47:18.458Z,67.40
2018-07-04T01:47:58.925Z,67.68
2018-07-04T01:48:57.481Z,68.35
2018-07-04T01:49:56.824Z,68.26
2018-07-04T01:50:57.466Z,68.26
2018-07-04T01:51:58.972Z,68.35
2018-07-04T01:52:58.923Z,68.92
2018-07-04T01:53:59.970Z,68.44
2018-07-04T01:54:57.974Z,68.16
2018-07-04T01:55:57.971Z,68.06
2018-07-04T01:57:00.465Z,68.06
2018-07-04T01:58:18.674Z,68.44
2018-07-04T01:59:19.466Z,68.82
2018-07-04T02:00:19.478Z,69.40
2018-07-04T02:00:58.465Z,69.65
2018-07-04T02:02:12.967Z,69.56
2018-07-04T02:03:19.176Z,69.78
2018-07-04T02:05:30.440Z,69.59
2018-07-04T02:06:30.447Z,69.31
2018-07-04T02:07:30.448Z,69.49
2018-07-04T02:08:30.944Z,69.40
2018-07-04T02:09:30.948Z,69.87
2018-07-04T02:10:30.946Z,69.93
2018-07-04T02:11:30.954Z,69.40
2018-07-04T02:12:46.879Z,69.49
2018-07-04T02:13:31.449Z,69.31
2018-07-04T02:14:31.451Z,69.17
2018-07-04T02:15:31.456Z,69.78
2018-07-04T02:18:24.712Z,69.74
2018-07-04T02:19:03.720Z,69.31
2018-07-04T02:20:05.160Z,69.49
2018-07-04T02:22:57.676Z,69.97
2018-07-04T02:25:07.441Z,70.45
2018-07-04T02:26:07.447Z,69.78
2018-07-04T02:27:07.445Z,70.07
2018-07-04T02:28:07.947Z,69.87
2018-07-04T02:29:07.977Z,69.87
2018-07-04T02:30:15.420Z,69.49
2018-07-04T02:31:07.949Z,69.31
2018-07-04T02:32:08.446Z,69.49
2018-07-04T02:33:08.447Z,69.68
2018-07-04T02:34:08.450Z,69.59
2018-07-04T02:35:08.454Z,69.68
2018-07-04T02:36:08.945Z,69.40
2018-07-04T02:37:31.946Z,69.68
2018-07-04T02:38:08.953Z,69.68
2018-07-04T02:39:10.378Z,69.68
2018-07-04T02:40:30.449Z,69.31
2018-07-04T02:41:11.446Z,69.40
2018-07-04T02:42:09.445Z,69.93
2018-07-04T02:43:10.414Z,69.68
2018-07-04T02:44:09.952Z,69.59
2018-07-04T02:45:30.954Z,70.07
2018-07-04T02:46:09.949Z,69.84
2018-07-04T02:47:09.948Z,70.73
2018-07-04T02:48:09.947Z,70.13
2018-07-04T02:49:33.385Z,70.32
2018-07-04T02:50:10.445Z,70.98
2018-07-04T02:51:24.445Z,70.98
2018-07-04T02:52:10.445Z,70.98
2018-07-04T02:53:10.945Z,70.79
2018-07-04T02:54:10.167Z,71.46
2018-07-04T02:55:31.946Z,71.56
2018-07-04T02:56:10.945Z,71.08
2018-07-04T02:57:11.445Z,70.79
2018-07-04T02:58:11.445Z,71.27
2018-07-04T02:59:11.444Z,71.18
2018-07-04T03:00:13.445Z,71.18
2018-07-04T03:01:25.954Z,71.27
2018-07-04T03:02:32.944Z,71.27
2018-07-04T03:03:11.945Z,71.66
2018-07-04T03:04:11.427Z,71.27
2018-07-04T03:05:13.404Z,71.84
2018-07-04T03:06:13.388Z,71.56
2018-07-04T03:08:43.890Z,71.37
2018-07-04T03:09:43.900Z,71.75
2018-07-04T03:10:43.897Z,71.84
2018-07-04T03:12:12.830Z,71.94
2018-07-04T03:12:44.395Z,72.13
2018-07-04T03:13:44.399Z,72.61
2018-07-04T03:14:44.397Z,72.51
2018-07-04T03:16:05.959Z,72.32
2018-07-04T03:16:44.897Z,72.51
2018-07-04T03:17:44.908Z,72.42
2018-07-04T03:18:44.897Z,72.89
2018-07-04T03:19:45.399Z,73.08
2018-07-04T03:20:45.396Z,72.51
2018-07-04T03:21:45.397Z,72.42
2018-07-04T03:22:45.397Z,72.42
2018-07-04T03:25:19.148Z,71.56
2018-07-04T03:26:39.082Z,71.66
2018-07-04T03:27:17.156Z,71.66
2018-07-04T03:28:38.654Z,71.94
2018-07-04T03:29:45.582Z,72.42
2018-07-04T03:30:19.109Z,72.61
2018-07-04T03:31:17.650Z,72.32
2018-07-04T03:33:49.422Z,72.51
2018-07-04T03:34:51.426Z,72.61
2018-07-04T03:35:49.437Z,73.08
2018-07-04T03:36:49.929Z,72.51
2018-07-04T03:37:49.927Z,72.61
2018-07-04T03:38:49.928Z,72.99
2018-07-04T03:39:49.930Z,72.80
2018-07-04T03:42:21.702Z,72.42
2018-07-04T03:43:21.696Z,73.08
2018-07-04T03:44:21.697Z,72.74
2018-07-04T03:45:22.203Z,72.55
2018-07-04T03:46:45.212Z,71.88
2018-07-04T03:47:22.196Z,71.75
2018-07-04T03:48:22.196Z,71.46
2018-07-04T03:49:22.705Z,72.36
2018-07-04T03:50:22.698Z,72.45
2018-07-04T03:51:22.696Z,72.51
2018-07-04T03:52:23.694Z,72.32
2018-07-04T03:53:22.293Z,72.45
2018-07-04T03:54:23.194Z,72.61
2018-07-04T03:55:44.195Z,72.36
2018-07-04T03:56:44.198Z,72.55
2018-07-04T03:57:44.696Z,71.88
2018-07-04T03:58:44.697Z,72.64
2018-07-04T03:59:44.715Z,72.64
2018-07-04T04:00:23.705Z,72.64
2018-07-04T04:01:44.305Z,72.74
2018-07-04T04:02:23.413Z,72.74
2018-07-04T04:03:24.205Z,72.64
2018-07-04T04:04:24.156Z,72.26
2018-07-04T04:05:45.697Z,71.59
2018-07-04T04:06:45.704Z,71.69
2018-07-04T04:07:24.708Z,72.64
2018-07-04T04:08:24.694Z,72.45
2018-07-04T04:09:26.128Z,72.45
2018-07-04T04:10:46.203Z,73.03
2018-07-04T04:11:25.196Z,72.45
2018-07-04T04:12:25.196Z,72.45
2018-07-04T04:13:27.695Z,72.83
2018-07-04T04:14:25.695Z,72.83
2018-07-04T04:15:25.043Z,72.36
2018-07-04T04:16:25.699Z,72.55
2018-07-04T04:17:26.196Z,72.55
2018-07-04T04:18:26.195Z,72.36
2018-07-04T04:19:27.199Z,72.83
2018-07-04T04:20:26.207Z,72.45
2018-07-04T04:21:26.695Z,72.45
2018-07-04T04:22:26.698Z,72.45
2018-07-04T04:23:26.694Z,72.45
2018-07-04T04:24:26.694Z,72.64
2018-07-04T04:25:27.199Z,72.45
2018-07-04T04:26:26.412Z,72.45
2018-07-04T04:27:27.194Z,72.45
2018-07-04T04:28:27.195Z,72.74
2018-07-04T04:32:31.217Z,72.78
2018-07-04T04:33:31.185Z,72.49
2018-07-04T04:34:31.177Z,72.87
2018-07-04T04:35:30.774Z,72.78
2018-07-04T04:36:45.678Z,73.16
2018-07-04T04:37:31.686Z,73.25
2018-07-04T04:38:31.678Z,74.11
2018-07-04T04:41:24.452Z,73.07
2018-07-04T04:42:04.920Z,73.25
2018-07-04T04:43:24.463Z,72.78
2018-07-04T04:44:24.962Z,72.68
2018-07-04T04:45:24.963Z,72.97
2018-07-04T04:46:09.964Z,72.87
2018-07-04T04:47:17.962Z,72.78
2018-07-04T04:48:18.460Z,73.35
2018-07-04T04:49:26.460Z,73.25
2018-07-04T04:50:25.463Z,73.83
2018-07-04T04:51:04.463Z,73.92
2018-07-04T04:52:25.038Z,72.33
2018-07-04T04:53:10.963Z,72.91
2018-07-04T04:54:06.963Z,72.33
2018-07-04T04:55:18.987Z,72.72
2018-07-04T04:56:04.963Z,72.72
2018-07-04T04:57:19.463Z,72.62
2018-07-04T04:58:32.465Z,71.86
2018-07-04T04:59:06.460Z,72.05
2018-07-04T05:00:21.444Z,73.23
2018-07-04T05:01:26.960Z,73.90
2018-07-04T05:02:05.968Z,73.14
2018-07-04T05:03:19.963Z,73.23
2018-07-04T05:04:05.963Z,72.94
2018-07-04T05:06:37.709Z,71.89
2018-07-04T05:07:37.716Z,71.99
2018-07-04T05:08:37.716Z,72.75
2018-07-04T05:11:10.926Z,71.13
2018-07-04T05:12:36.470Z,71.73
2018-07-04T05:13:29.802Z,71.36
2018-07-04T05:14:09.471Z,71.93
2018-07-04T05:17:08.668Z,72.22
2018-07-04T05:17:41.736Z,72.12
2018-07-04T05:18:42.732Z,70.97
2018-07-04T05:19:41.331Z,70.21
2018-07-04T05:20:43.670Z,70.40
2018-07-04T05:21:41.573Z,71.16
2018-07-04T05:22:42.255Z,70.50
2018-07-04T05:24:02.839Z,70.43
2018-07-04T05:26:14.101Z,70.24
2018-07-04T05:27:14.107Z,70.91
2018-07-04T05:28:14.134Z,71.11
2018-07-04T05:29:14.611Z,71.20
2018-07-04T05:30:14.604Z,71.52
2018-07-04T05:34:39.031Z,69.80
2018-07-04T05:35:18.038Z,68.36
2018-07-04T05:36:40.037Z,68.17
2018-07-04T05:37:18.040Z,67.91
2018-07-04T05:38:18.038Z,67.15
2018-07-04T05:39:18.539Z,67.44
2018-07-04T05:40:18.546Z,66.77
2018-07-04T05:41:18.538Z,66.67
2018-07-04T05:42:18.539Z,65.33
2018-07-04T05:43:19.054Z,65.17
2018-07-04T05:44:25.059Z,65.84
2018-07-04T05:45:19.039Z,65.17
2018-07-04T05:46:19.042Z,64.79
2018-07-04T05:47:19.538Z,64.82
2018-07-04T05:48:18.761Z,64.92
2018-07-04T05:49:19.539Z,64.25
2018-07-04T05:50:19.012Z,63.38
2018-07-04T05:51:19.136Z,63.29
2018-07-04T05:52:20.081Z,62.90
2018-07-04T05:53:19.402Z,62.65
2018-07-04T05:54:21.708Z,62.26
2018-07-04T05:55:19.460Z,61.59
2018-07-04T05:59:23.699Z,61.40
2018-07-04T06:00:24.714Z,60.82
2018-07-04T06:01:23.706Z,60.72
2018-07-04T06:02:25.205Z,60.25
2018-07-04T06:03:24.212Z,60.35
2018-07-04T06:04:24.206Z,60.63
2018-07-04T06:05:46.205Z,60.57
2018-07-04T06:07:55.965Z,59.86
2018-07-04T06:08:55.969Z,60.28
2018-07-04T06:09:55.969Z,59.89
2018-07-04T06:10:56.470Z,60.57
2018-07-04T06:13:27.427Z,59.41
2018-07-04T06:14:50.290Z,59.12
2018-07-04T06:17:00.254Z,58.87
2018-07-04T06:18:00.255Z,58.20
2018-07-04T06:19:06.747Z,58.00
2018-07-04T06:21:46.638Z,58.20
2018-07-04T06:22:53.646Z,58.51
2018-07-04T06:23:53.645Z,59.19
2018-07-04T06:24:35.079Z,59.09
2018-07-04T06:25:54.146Z,59.38
2018-07-04T06:26:39.144Z,59.57
2018-07-04T06:27:54.147Z,59.28
2018-07-04T06:28:33.147Z,58.80
2018-07-04T06:31:20.936Z,58.22
2018-07-04T06:32:05.038Z,57.75
2018-07-04T06:33:26.956Z,56.98
2018-07-04T06:34:05.949Z,56.91
2018-07-04T06:35:07.408Z,56.81
2018-07-04T06:36:27.446Z,56.52
2018-07-04T06:37:29.448Z,55.66
2018-07-04T06:38:20.446Z,55.27
2018-07-04T06:39:28.444Z,54.89
2018-07-04T06:40:06.947Z,55.08
2018-07-04T06:41:06.946Z,55.11
2018-07-04T06:42:06.966Z,55.68
2018-07-04T06:43:07.957Z,55.20
2018-07-04T06:44:29.900Z,54.82
2018-07-04T06:45:28.445Z,53.57
2018-07-04T06:46:06.674Z,54.43
2018-07-04T06:47:30.878Z,54.91
2018-07-04T06:48:07.451Z,54.43
2018-07-04T06:49:21.947Z,54.36
2018-07-04T06:50:22.954Z,54.46
2018-07-04T06:51:28.945Z,54.46
2018-07-04T06:52:07.428Z,54.85
2018-07-04T06:53:29.458Z,56.38
2018-07-04T06:54:29.527Z,54.46
2018-07-04T06:55:08.445Z,55.13
2018-07-04T06:56:22.453Z,55.04
2018-07-04T06:57:10.947Z,54.58
2018-07-04T06:58:08.944Z,53.62
2018-07-04T06:59:08.949Z,53.33
2018-07-04T07:01:46.598Z,51.89
2018-07-04T07:02:40.595Z,51.60
2018-07-04T07:03:40.594Z,51.41
2018-07-04T07:06:12.367Z,51.05
2018-07-04T07:07:12.371Z,50.76
2018-07-04T07:08:12.420Z,50.85
2018-07-04T07:09:12.872Z,51.53
2018-07-04T07:10:18.870Z,50.37
2018-07-04T07:11:12.870Z,49.63
2018-07-04T07:12:12.870Z,52.13
2018-07-04T07:13:13.371Z,49.53
2018-07-04T07:15:45.251Z,48.95
2018-07-04T07:16:46.257Z,50.69
2018-07-04T07:17:45.258Z,49.82
2018-07-04T07:20:19.029Z,49.84
2018-07-04T07:21:17.115Z,50.81
2018-07-04T07:22:17.037Z,50.04
2018-07-04T07:23:19.537Z,50.04
2018-07-04T07:24:17.573Z,50.13
2018-07-04T07:25:19.544Z,49.29
2018-07-04T07:26:17.026Z,47.94
2018-07-04T07:27:20.035Z,49.19
2018-07-04T07:28:32.037Z,48.81
2018-07-04T07:29:18.037Z,49.41
2018-07-04T07:30:40.509Z,48.06
2018-07-04T07:31:38.583Z,47.29
2018-07-04T07:32:17.686Z,47.58
2018-07-04T07:33:18.536Z,47.50
2018-07-04T07:34:24.610Z,47.41
2018-07-04T07:35:39.567Z,47.41
2018-07-04T07:37:50.814Z,45.57
2018-07-04T07:38:50.821Z,45.50
2018-07-04T07:40:11.821Z,44.73
2018-07-04T07:40:51.325Z,44.73
2018-07-04T07:41:51.361Z,43.98
2018-07-04T07:42:53.801Z,45.59
2018-07-04T07:43:51.322Z,45.23
2018-07-04T07:44:51.850Z,44.56
2018-07-04T07:45:57.825Z,43.88
2018-07-04T07:46:51.821Z,43.03
2018-07-04T07:47:51.302Z,42.45
2018-07-04T07:48:52.394Z,41.97
2018-07-04T07:50:13.322Z,41.97
2018-07-04T07:50:51.677Z,41.70
2018-07-04T07:51:52.329Z,43.34
2018-07-04T07:52:56.755Z,42.76
2018-07-04T07:53:53.820Z,42.08
2018-07-04T07:54:52.175Z,42.88
2018-07-04T07:55:52.829Z,42.78
2018-07-04T07:57:21.320Z,41.72
2018-07-04T07:57:52.587Z,41.33
2018-07-04T07:58:59.324Z,41.24
2018-07-04T08:01:16.831Z,40.00
2018-07-04T08:01:54.853Z,39.51
2018-07-04T08:02:53.823Z,39.61
2018-07-04T08:04:07.822Z,39.70
2018-07-04T08:06:47.098Z,40.01
2018-07-04T08:07:46.434Z,39.62
2018-07-04T08:08:26.112Z,39.94
2018-07-04T08:09:26.106Z,38.96
2018-07-04T08:13:29.348Z,39.28
2018-07-04T08:14:30.354Z,38.60
2018-07-04T08:15:29.355Z,39.69
2018-07-04T08:16:32.321Z,38.44
2018-07-04T08:17:52.356Z,38.06
2018-07-04T08:18:30.789Z,37.47
2018-07-04T08:19:29.297Z,37.18
2018-07-04T08:20:29.422Z,37.66
2018-07-04T08:21:30.358Z,37.18
2018-07-04T08:22:51.356Z,36.19
2018-07-04T08:23:30.362Z,36.97
2018-07-04T08:24:30.356Z,37.18
2018-07-04T08:25:51.860Z,38.64
2018-07-04T08:26:30.855Z,38.13
2018-07-04T08:27:32.857Z,36.77
2018-07-04T08:28:38.310Z,36.87
2018-07-04T08:29:30.417Z,36.77
2018-07-04T08:30:53.297Z,36.77
2018-07-04T08:31:30.663Z,38.32
2018-07-04T08:32:31.357Z,38.13
2018-07-04T08:33:52.357Z,37.55
2018-07-04T08:34:33.858Z,37.26
2018-07-04T08:35:52.857Z,38.12
2018-07-04T08:38:03.385Z,39.28
2018-07-04T08:39:02.862Z,39.20
2018-07-04T08:40:03.391Z,39.20
2018-07-04T08:44:06.615Z,38.06
2018-07-04T08:45:06.621Z,36.79
2018-07-04T08:46:06.624Z,37.18
2018-07-04T08:47:07.121Z,36.89
2018-07-04T08:48:07.135Z,38.27
2018-07-04T08:49:07.121Z,37.78
2018-07-04T08:50:30.594Z,36.91
2018-07-04T08:51:06.749Z,36.13
2018-07-04T08:52:10.632Z,36.91
2018-07-04T08:53:27.907Z,36.22
2018-07-04T08:54:13.619Z,37.20
2018-07-04T08:55:07.625Z,36.91
2018-07-04T08:58:00.406Z,35.64
2018-07-04T08:58:41.440Z,36.52
2018-07-04T08:59:39.412Z,36.91
2018-07-04T09:00:45.922Z,36.71
2018-07-04T09:01:53.917Z,37.20
2018-07-04T09:02:39.916Z,36.42
2018-07-04T09:03:39.913Z,36.13
2018-07-04T09:04:39.517Z,36.71
2018-07-04T09:05:40.471Z,36.81
2018-07-04T09:06:40.414Z,35.84
2018-07-04T09:08:02.416Z,35.35
2018-07-04T09:09:07.911Z,34.97
2018-07-04T09:09:54.913Z,34.77
2018-07-04T09:11:01.917Z,35.06
2018-07-04T09:11:40.920Z,34.77
2018-07-04T09:12:47.414Z,35.06
2018-07-04T09:13:41.414Z,36.42
2018-07-04T09:16:13.910Z,35.94
2018-07-04T09:17:12.275Z,35.35
2018-07-04T09:18:12.950Z,36.34
2018-07-04T09:19:19.450Z,35.27
2018-07-04T09:20:19.450Z,34.69
2018-07-04T09:21:14.417Z,34.69
2018-07-04T09:22:27.450Z,35.17
2018-07-04T09:23:13.458Z,33.43
2018-07-04T09:24:27.999Z,34.03
2018-07-04T09:25:34.950Z,34.80
2018-07-04T09:26:13.955Z,34.61
2018-07-04T09:27:19.950Z,34.72
2018-07-04T09:28:28.464Z,35.31
2018-07-04T09:29:14.451Z,35.99
2018-07-04T09:30:14.451Z,32.78
2018-07-04T09:31:14.451Z,32.60
2018-07-04T09:32:14.961Z,32.40
2018-07-04T09:33:28.957Z,32.71
2018-07-04T09:34:37.951Z,31.24
2018-07-04T09:35:14.444Z,32.23
2018-07-04T09:36:42.481Z,33.20
2018-07-04T09:37:29.455Z,32.13
2018-07-04T09:38:14.882Z,31.45
2018-07-04T09:39:15.450Z,31.66
2018-07-04T09:40:42.954Z,30.67
2018-07-04T09:45:56.258Z,31.66
2018-07-04T09:47:11.273Z,31.46
2018-07-04T09:49:23.362Z,29.53
2018-07-04T09:50:21.944Z,30.41
2018-07-04T09:51:21.420Z,30.99
2018-07-04T09:52:22.439Z,28.77
2018-07-04T09:53:22.446Z,28.38
2018-07-04T09:54:23.424Z,28.67
2018-07-04T09:55:22.427Z,28.16
2018-07-04T09:56:22.920Z,28.07
2018-07-04T09:58:54.385Z,28.45
2018-07-04T09:59:56.363Z,29.63
2018-07-04T10:00:54.374Z,27.09
2018-07-04T10:01:53.973Z,27.19
2018-07-04T10:02:54.172Z,27.78
2018-07-04T10:04:18.295Z,27.68
2018-07-04T10:05:17.333Z,26.90
2018-07-04T10:05:54.863Z,26.70
2018-07-04T10:07:16.363Z,26.02
2018-07-04T10:10:58.303Z,26.13
2018-07-04T10:12:19.403Z,26.02
2018-07-04T10:14:52.204Z,27.01
2018-07-04T10:15:37.210Z,25.45
2018-07-04T10:16:31.211Z,27.11
2018-07-04T10:17:52.720Z,27.12
2018-07-04T10:18:33.715Z,23.71
2018-07-04T10:19:31.064Z,25.07
2018-07-04T10:20:52.711Z,24.96
2018-07-04T10:23:24.495Z,26.81
2018-07-04T10:24:03.499Z,26.90
2018-07-04T10:25:05.504Z,26.41
2018-07-04T10:27:51.252Z,28.36
2018-07-04T10:28:35.319Z,26.02
2018-07-04T10:29:35.786Z,25.63
2018-07-04T10:30:35.784Z,26.02
2018-07-04T10:33:07.183Z,26.41
2018-07-04T10:34:07.191Z,25.81
2018-07-04T10:35:07.692Z,26.98
2018-07-04T10:37:38.976Z,27.66
2018-07-04T10:38:38.967Z,27.28
2018-07-04T10:40:02.522Z,28.55
2018-07-04T10:41:07.998Z,28.25
2018-07-04T10:41:59.817Z,27.47
2018-07-04T10:42:45.462Z,27.18
2018-07-04T10:45:13.242Z,27.08
2018-07-04T10:46:12.677Z,28.15
2018-07-04T10:47:11.246Z,28.16
2018-07-04T10:48:32.746Z,27.78
2018-07-04T10:49:32.756Z,26.80
2018-07-04T10:51:43.273Z,26.70
2018-07-04T10:52:43.291Z,26.70
2018-07-04T10:55:15.056Z,28.57
2018-07-04T10:56:15.063Z,28.47
2018-07-04T10:57:16.529Z,29.64
2018-07-04T10:58:14.753Z,27.98
2018-07-04T11:02:20.987Z,28.09
2018-07-04T11:03:18.996Z,28.39
2018-07-04T11:04:18.992Z,29.07
2018-07-04T11:05:19.494Z,29.07
2018-07-04T11:06:19.495Z,26.04
2018-07-04T11:07:19.513Z,25.96
2018-07-04T11:08:19.013Z,26.35
2018-07-04T11:14:46.564Z,25.57
2018-07-04T11:15:47.612Z,26.64
2018-07-04T11:16:46.725Z,26.86
2018-07-04T11:19:24.029Z,27.15
2018-07-04T11:20:32.035Z,26.27
2018-07-04T11:21:18.036Z,26.56
2018-07-04T11:24:24.426Z,25.60
2018-07-04T11:25:46.381Z,26.38
2018-07-04T11:26:25.391Z,25.70
2018-07-04T11:27:25.382Z,25.61
2018-07-04T11:28:25.434Z,26.98
2018-07-04T11:29:25.881Z,26.98
2018-07-04T11:30:25.892Z,25.81
2018-07-04T11:31:25.882Z,25.12
2018-07-04T11:32:25.892Z,25.61
2018-07-04T11:33:32.381Z,24.33
2018-07-04T11:34:27.831Z,24.92
2018-07-04T11:35:26.389Z,25.61
2018-07-04T11:40:30.523Z,25.60
2018-07-04T11:41:31.053Z,26.28
2018-07-04T11:46:35.356Z,26.29
2018-07-04T11:47:37.794Z,26.98
2018-07-04T11:48:32.721Z,26.50
2018-07-04T11:49:32.874Z,26.99
2018-07-04T11:50:33.862Z,28.16
2018-07-04T11:51:54.097Z,27.88
2018-07-04T11:52:54.859Z,27.78
2018-07-04T11:53:54.861Z,26.32
2018-07-04T11:56:25.902Z,25.05
2018-07-04T11:57:19.642Z,26.62
2018-07-04T11:58:05.641Z,25.34
2018-07-04T11:59:33.142Z,24.66
2018-07-04T12:00:33.144Z,25.35
2018-07-04T12:01:28.095Z,23.69
2018-07-04T12:02:12.139Z,24.37
2018-07-04T12:03:08.642Z,25.94
2018-07-04T12:05:38.035Z,24.66
2018-07-04T12:06:38.041Z,24.76
2018-07-04T12:07:38.092Z,25.35
2018-07-04T12:13:13.343Z,25.54
2018-07-04T12:14:27.352Z,26.32
2018-07-04T12:15:15.368Z,26.61
2018-07-04T12:16:12.992Z,24.65
2018-07-04T12:20:46.876Z,25.13
2018-07-04T12:21:46.228Z,25.04
2018-07-04T12:25:49.957Z,26.99
2018-07-04T12:26:49.965Z,27.28
2018-07-04T12:27:49.938Z,27.77
2018-07-04T12:29:11.438Z,25.72
2018-07-04T12:29:50.438Z,25.13
2018-07-04T12:30:50.435Z,25.24
2018-07-04T12:32:11.439Z,26.90
2018-07-04T12:34:28.215Z,26.43
2018-07-04T12:35:23.235Z,26.04
2018-07-04T12:36:22.217Z,25.16
2018-07-04T12:37:49.730Z,24.38
2018-07-04T12:38:45.186Z,23.99
2018-07-04T12:39:45.187Z,22.91
2018-07-04T12:41:54.384Z,24.01
2018-07-04T12:42:55.346Z,25.46
2018-07-04T12:43:54.348Z,24.58
2018-07-04T12:47:58.524Z,24.87
2018-07-04T12:49:18.592Z,24.29
2018-07-04T12:49:57.596Z,23.70
2018-07-04T12:52:29.373Z,24.41
2018-07-04T12:53:29.380Z,25.39
2018-07-04T12:54:29.450Z,23.72
2018-07-04T12:55:29.889Z,24.21
2018-07-04T12:56:43.885Z,22.94
2018-07-04T12:57:29.882Z,22.25
2018-07-04T12:58:29.372Z,22.74
2018-07-04T12:59:53.381Z,22.94
2018-07-04T13:00:32.387Z,21.37
2018-07-04T13:01:30.379Z,22.95
2018-07-04T13:02:30.386Z,21.97
2018-07-04T13:03:29.991Z,21.38
2018-07-04T13:04:53.881Z,22.06
2018-07-04T13:05:31.847Z,22.55
2018-07-04T13:06:30.937Z,23.03
2018-07-04T13:07:33.325Z,23.82
2018-07-04T13:08:55.314Z,25.59
2018-07-04T13:09:30.742Z,26.56
2018-07-04T13:12:03.058Z,24.20
2018-07-04T13:13:24.073Z,24.98
2018-07-04T13:14:24.056Z,26.25
2018-07-04T13:15:05.558Z,27.23
2018-07-04T13:16:03.563Z,25.95
2018-07-04T13:17:23.904Z,26.15
2018-07-04T13:18:03.030Z,26.83
2018-07-04T13:19:05.490Z,24.96
2018-07-04T13:20:04.059Z,26.23
2018-07-04T13:22:35.608Z,26.90
2018-07-04T13:23:35.649Z,28.19
2018-07-04T13:24:35.628Z,28.67
2018-07-04T13:25:36.116Z,26.71
2018-07-04T13:26:36.116Z,25.93
2018-07-04T13:27:36.115Z,26.99
2018-07-04T13:28:36.116Z,27.48
2018-07-04T13:32:41.780Z,28.85
2018-07-04T13:33:39.343Z,26.79
2018-07-04T13:35:00.343Z,26.22
2018-07-04T13:38:41.867Z,26.61
2018-07-04T13:39:43.573Z,24.85
2018-07-04T13:40:42.059Z,26.12
2018-07-04T13:42:10.075Z,26.72
2018-07-04T13:44:43.080Z,27.80
2018-07-04T13:47:35.849Z,26.90
2018-07-04T13:48:14.849Z,27.10
2018-07-04T13:49:29.492Z,29.16
2018-07-04T13:51:55.840Z,26.89
2018-07-04T13:54:34.092Z,27.28
2018-07-04T13:57:49.926Z,29.52
2018-07-04T13:58:51.390Z,29.32
2018-07-04T13:59:49.941Z,28.64
2018-07-04T14:01:10.532Z,28.44
2018-07-04T14:02:11.451Z,28.44
2018-07-04T14:02:50.564Z,29.24
2018-07-04T14:03:50.572Z,28.16
2018-07-04T14:04:50.935Z,27.17
2018-07-04T14:06:13.025Z,26.99
2018-07-04T14:06:50.936Z,27.09
2018-07-04T14:07:50.936Z,27.19
2018-07-04T14:08:50.546Z,28.08
2018-07-04T14:09:51.436Z,29.14
2018-07-04T14:10:51.470Z,30.12
2018-07-04T14:11:51.435Z,28.57
2018-07-04T14:13:12.938Z,30.12
2018-07-04T14:16:54.129Z,31.00
2018-07-04T14:18:15.841Z,27.87
2018-07-04T14:18:54.873Z,28.65
2018-07-04T14:21:54.119Z,27.39
2018-07-04T14:22:27.130Z,28.39
2018-07-04T14:23:48.131Z,29.85
2018-07-04T14:24:27.624Z,27.23
2018-07-04T14:25:27.624Z,27.33
2018-07-04T14:26:27.668Z,27.70
2018-07-04T14:27:30.125Z,26.92
2018-07-04T14:28:30.125Z,27.81
2018-07-04T14:30:59.526Z,26.75
2018-07-04T14:31:59.533Z,26.75
2018-07-04T14:33:20.534Z,26.45
2018-07-04T14:35:52.325Z,25.59
2018-07-04T14:36:54.336Z,26.26
2018-07-04T14:37:34.767Z,27.25
2018-07-04T14:40:03.098Z,24.71
2018-07-04T14:41:05.105Z,23.74
2018-07-04T14:42:03.113Z,24.33
2018-07-04T14:43:03.607Z,23.54
2018-07-04T14:45:35.012Z,26.67
2018-07-04T14:46:57.013Z,24.79
2018-07-04T14:47:35.014Z,25.76
2018-07-04T14:50:20.781Z,27.11
2018-07-04T14:51:06.800Z,26.53
2018-07-04T14:52:06.816Z,27.11
2018-07-04T14:56:09.345Z,25.87
2018-07-04T14:57:31.019Z,25.67
2018-07-04T14:58:10.972Z,26.17
2018-07-04T15:00:44.375Z,24.81
2018-07-04T15:01:45.313Z,23.84
2018-07-04T15:03:04.726Z,23.93
2018-07-04T15:04:05.389Z,23.63
2018-07-04T15:04:58.881Z,24.03
2018-07-04T15:05:44.881Z,24.91
2018-07-04T15:06:44.894Z,23.74
2018-07-04T15:07:44.881Z,23.45
2018-07-04T15:09:06.818Z,23.55
2018-07-04T15:09:46.397Z,23.06
2018-07-04T15:10:46.835Z,23.75
2018-07-04T15:11:45.381Z,22.97
2018-07-04T15:13:06.881Z,23.46
2018-07-04T15:13:45.884Z,23.66
2018-07-04T15:14:45.253Z,24.04
2018-07-04T15:15:45.881Z,23.65
2018-07-04T15:17:00.381Z,23.36
2018-07-04T15:18:07.389Z,22.58
2018-07-04T15:20:17.917Z,22.59
2018-07-04T15:22:50.918Z,22.69
2018-07-04T15:23:50.447Z,22.30
2018-07-04T15:28:13.720Z,24.03
2018-07-04T15:28:52.686Z,23.93
2018-07-04T15:29:54.127Z,24.99
2018-07-04T15:32:26.343Z,27.63
2018-07-04T15:33:23.904Z,27.03
2018-07-04T15:36:02.685Z,25.55
2018-07-04T15:38:27.870Z,26.81
2018-07-04T15:39:27.982Z,27.29
2018-07-04T15:40:32.024Z,27.19
2018-07-04T15:43:00.355Z,32.17
2018-07-04T15:44:03.296Z,31.88
2018-07-04T15:45:01.819Z,31.08
2018-07-04T15:45:59.928Z,31.08
2018-07-04T15:47:21.873Z,31.67
2018-07-04T15:48:27.901Z,31.96
2018-07-04T15:49:00.864Z,31.18
2018-07-04T15:50:00.863Z,30.48
2018-07-04T15:52:53.629Z,29.24
2018-07-04T15:53:32.637Z,29.16
2018-07-04T15:56:04.330Z,26.42
2018-07-04T15:57:04.336Z,28.28
2018-07-04T15:58:25.331Z,29.64
2018-07-04T15:59:31.885Z,29.84
2018-07-04T16:01:37.730Z,29.25
2018-07-04T16:02:38.261Z,28.08
2018-07-04T16:03:36.262Z,28.18